Aviation Digital Data Service (ADDS)

Output produced by METARs form (1733 UTC 27 May 2017)
found at http://www.aviationweather.gov/adds/metars/
 
TAF TFFR 271700Z 2718/2818 12010KT 9999 SCT030 
     BECMG 2723/2801 VRB02KT 
     TEMPO 2803/2812 4000 SHRA SCT018TCU 
     PROB30 
     TEMPO 2809/2812 1000 TSRA BKN015CB